Flugplatz Geilsheim (UL)

Hier findest Du alle Informationen zum Flugplatz Geilsheim (UL).

Informationen für Piloten zum Flugplatz Geilsheim

Hier findest Du alle relevanten Informationen, die Du als Pilot benötigst, um Geilsheim anzufliegen.

Flugplatz: Geilsheim ICAO-Code: UL Flugplatz
Frequenz Turm: 123.425 Mhz GAFOR Gebiet: 56
Frequenz Ground: 123.425 Mhz Mogas: nein
Platzrunde: S 2000 ft Landegebühr: -
Platzhöhe: Sunrise: 06:55 Uhr UTC
Pisten: 09/27 - 375 m x 25 m, GRAS Sunset: 16:02 Uhr UTC

Mitglieder, die in Geilsheim fliegen

Flugwetter am Flugplatz Geilsheim

Die METAR Information stammen aus EDDN (61.03 km entfernt).

METAR Code:
2022/01/02 15:20
EDDN 021520Z VRB02KT CAVOK 10/05 Q1017 BECMG 20010KT

Flugschulen am Flugplatz Geilsheim

Am Flugplatz Geilsheim gibt es leider keine Flugschule.

Benachbarte Flugplätze und Flugschulen

Es gibt 22 weitere Flugplätze in einem Umkreis von 50 km um den Flugplatz Geilsheim.

Jetzt anmelden

Passwort vergessen

Umfrage Archiv

Welche Navigations-App nutzt Ihr im Cockpit

SkyDemon
51.8 %
VFRnav
18.7 %
Ich nutze eine andere App
17.1 %
Ich nutze gar keine App
5.4 %
EasyVFR
5.1 %
ForeFlight
1.9 %
Stimmen: 257 | Diskussion (45)
Anzeige: Roland Aircraft
Statistik Alle Mitglieder

Aktuell sind 49 Besucher online, davon 6 Mitglieder und 43 Gäste.


Mitglieder online:
Pink Panther  raller  CL-415  hennes  Heli  NRW-Aviator 

Anzeige: Pocket FMS